Time;durP1;ratioP1;P1;durP2;ratioP2;P2;SDS_P1;SDS_P2;PMS_P1;PMS_P2;Temp;Humidity;BMP_temperature;BMP_pressure;BME280_temperature;BME280_humidity;BME280_pressure;Samples;Min_cycle;Max_cycle;Signal;HPM_P1;HPM_P2
2021/07/31 00:00:57;;;;;;;10.10;7.18;;;;;;;;;;5017355;28;20069;-52
2021/07/31 00:03:23;;;;;;;9.27;7.43;;;;;;;;;;5017688;28;20428;-53
2021/07/31 00:05:52;;;;;;;10.00;7.00;;;;;;;;;;5017385;28;20100;-53
2021/07/31 00:08:18;;;;;;;8.45;7.10;;;;;;;;;;5017418;28;20366;-52
2021/07/31 00:10:44;;;;;;;10.52;6.97;;;;;;;;;;5017161;28;20026;-53
2021/07/31 00:13:10;;;;;;;11.00;7.43;;;;;;;;;;5017418;28;20030;-53
2021/07/31 00:15:37;;;;;;;9.57;7.22;;;;;;;;;;5017191;28;20032;-52
2021/07/31 00:18:03;;;;;;;8.20;6.47;;;;;;;;;;5016964;28;20022;-53
2021/07/31 00:20:29;;;;;;;10.20;7.57;;;;;;;;;;5017124;28;20053;-52
2021/07/31 00:22:55;;;;;;;12.25;7.30;;;23.70;99.80;;;;;;5016895;28;20109;-53
2021/07/31 00:25:21;;;;;;;10.20;6.45;;;;;;;;;;5017051;28;20109;-53
2021/07/31 00:27:46;;;;;;;8.07;7.28;;;23.60;93.80;;;;;;5015264;28;20053;-52
2021/07/31 00:30:13;;;;;;;9.98;7.15;;;;;;;;;;5016818;28;20018;-52
2021/07/31 00:32:38;;;;;;;9.73;6.82;;;24.00;95.10;;;;;;5017037;28;20049;-52
2021/07/31 00:35:05;;;;;;;8.82;7.38;;;24.40;92.10;;;;;;5016938;28;20022;-52
2021/07/31 00:37:30;;;;;;;9.65;6.63;;;24.70;90.10;;;;;;5015110;28;20045;-52
2021/07/31 00:39:56;;;;;;;8.32;6.88;;;25.00;91.40;;;;;;5016851;28;20038;-52
2021/07/31 00:42:22;;;;;;;13.10;6.95;;;;;;;;;;5016803;28;20025;-52
2021/07/31 00:44:48;;;;;;;10.10;6.60;;;;;;;;;;5016635;28;20093;-52
2021/07/31 00:47:15;;;;;;;11.75;7.00;;;;;;;;;;5016798;28;20113;-53
2021/07/31 00:49:42;;;;;;;8.88;6.68;;;;;;;;;;5016513;28;20078;-52
2021/07/31 00:52:08;;;;;;;7.22;6.47;;;25.50;92.60;;;;;;5016551;28;20032;-52
2021/07/31 00:54:34;;;;;;;7.07;6.38;;;25.40;92.00;;;;;;5016620;28;20112;-52
2021/07/31 00:57:01;;;;;;;7.07;6.38;;;25.40;92.10;;;;;;5016711;28;20034;-52
2021/07/31 00:59:27;;;;;;;9.77;7.68;;;25.20;92.30;;;;;;5015555;28;20397;-52
2021/07/31 01:01:52;;;;;;;10.20;7.75;;;25.30;92.40;;;;;;5016491;28;20022;-52
2021/07/31 01:04:19;;;;;;;10.52;7.32;;;25.20;92.50;;;;;;5015951;28;20432;-52
2021/07/31 01:06:45;;;;;;;8.60;7.15;;;25.30;92.80;;;;;;5016302;28;20056;-53
2021/07/31 01:09:10;;;;;;;9.05;7.45;;;25.40;92.80;;;;;;5015382;28;20493;-52
2021/07/31 01:11:37;;;;;;;8.75;7.32;;;;;;;;;;5015990;28;20018;-52
2021/07/31 01:14:03;;;;;;;10.65;7.13;;;;;;;;;;5015865;28;20057;-53
2021/07/31 01:16:32;;;;;;;9.38;7.10;;;;;;;;;;4994169;28;20035;-53
2021/07/31 01:18:58;;;;;;;9.82;7.03;;;;;;;;;;4994369;28;20174;-53
2021/07/31 01:21:35;;;;;;;11.32;6.90;;;;;;;;;;4994445;28;20042;-53
2021/07/31 01:24:01;;;;;;;10.90;6.95;;;;;;;;;;4994250;28;20401;-53
2021/07/31 01:26:27;;;;;;;9.52;7.47;;;;;;;;;;4994367;28;20047;-52
2021/07/31 01:28:54;;;;;;;8.88;6.80;;;;;;;;;;4994410;28;20409;-52
2021/07/31 01:31:20;;;;;;;9.68;7.25;;;;;;;;;;4994037;28;20493;-52
2021/07/31 01:33:46;;;;;;;9.27;6.97;;;;;;;;;;4994206;28;20034;-52
2021/07/31 01:36:12;;;;;;;10.77;7.50;;;;;;;;;;4994005;28;20046;-52
2021/07/31 01:38:38;;;;;;;11.27;8.02;;;;;;;;;;4994036;28;20458;-52
2021/07/31 01:41:04;;;;;;;10.55;7.53;;;;;;;;;;4977938;28;20530;-53
2021/07/31 01:43:31;;;;;;;8.75;7.32;;;;;;;;;;4977936;28;20536;-52
2021/07/31 01:45:57;;;;;;;12.35;8.52;;;;;;;;;;4994052;28;20081;-52
2021/07/31 01:48:23;;;;;;;9.23;7.13;;;;;;;;;;4995718;28;20037;-52
2021/07/31 01:50:49;;;;;;;7.88;7.15;;;;;;;;;;5015437;28;20093;-52
2021/07/31 01:53:15;;;;;;;12.85;8.05;;;;;;;;;;5015519;28;20030;-52
2021/07/31 01:55:41;;;;;;;9.85;7.82;;;;;;;;;;5015352;28;20030;-52
2021/07/31 01:58:07;;;;;;;13.85;8.13;;;;;;;;;;5015543;28;20025;-52
2021/07/31 02:00:33;;;;;;;8.35;7.45;;;;;;;;;;5015159;28;20066;-52
2021/07/31 02:02:59;;;;;;;11.23;7.97;;;;;;;;;;5015501;28;20038;-52
2021/07/31 02:05:25;;;;;;;11.57;8.35;;;;;;;;;;5013483;28;20040;-52
2021/07/31 02:07:51;;;;;;;9.38;7.75;;;;;;;;;;5013639;28;20180;-52
2021/07/31 02:10:18;;;;;;;8.85;7.63;;;;;;;;;;5013430;28;20030;-53
2021/07/31 02:12:44;;;;;;;8.90;7.78;;;;;;;;;;5015067;28;20417;-52
2021/07/31 02:15:10;;;;;;;12.40;8.63;;;;;;;;;;5015032;28;20028;-52
2021/07/31 02:17:36;;;;;;;9.32;7.70;;;;;;;;;;5014966;28;20061;-52
2021/07/31 02:20:02;;;;;;;11.57;7.97;;;;;;;;;;5013892;28;20048;-52
2021/07/31 02:22:28;;;;;;;13.02;9.15;;;24.10;99.90;;;;;;5015011;28;20049;-52
2021/07/31 02:24:54;;;;;;;10.23;7.40;;;23.90;95.80;;;;;;5014984;28;20033;-52
2021/07/31 02:27:19;;;;;;;10.23;7.85;;;24.30;93.70;;;;;;5014748;28;20022;-52
2021/07/31 02:29:45;;;;;;;15.20;8.02;;;24.10;95.30;;;;;;5013024;28;20037;-52
2021/07/31 02:32:11;;;;;;;11.10;8.50;;;24.50;94.80;;;;;;4980310;28;20044;-52
2021/07/31 02:34:37;;;;;;;10.77;7.53;;;24.80;95.00;;;;;;5014979;28;20469;-52
2021/07/31 02:37:03;;;;;;;14.60;7.85;;;24.90;97.10;;;;;;5014737;28;20033;-52
2021/07/31 02:39:28;;;;;;;9.77;8.02;;;24.60;98.60;;;;;;5012799;28;20087;-52
2021/07/31 02:41:54;;;;;;;12.93;7.88;;;;;;;;;;5030337;28;20064;-52
2021/07/31 02:44:20;;;;;;;11.40;7.20;;;25.00;98.70;;;;;;5015879;28;20156;-52
2021/07/31 02:46:46;;;;;;;9.52;7.85;;;25.10;96.70;;;;;;5034242;28;20484;-52
2021/07/31 02:49:12;;;;;;;10.98;7.35;;;24.90;96.10;;;;;;5034129;28;20037;-53
2021/07/31 02:51:37;;;;;;;14.35;8.48;;;25.00;95.60;;;;;;5034254;28;20380;-52
2021/07/31 02:54:03;;;;;;;9.88;7.15;;;25.20;95.60;;;;;;5034332;28;20037;-53
2021/07/31 02:56:29;;;;;;;12.68;7.68;;;;;;;;;;5034247;28;20029;-52
2021/07/31 02:58:55;;;;;;;8.50;7.43;;;;;;;;;;5034455;28;20037;-52
2021/07/31 03:01:21;;;;;;;8.90;7.97;;;;;;;;;;5033563;28;20045;-52
2021/07/31 03:03:48;;;;;;;13.10;7.93;;;;;;;;;;5033894;28;20057;-52
2021/07/31 03:06:14;;;;;;;11.27;7.60;;;;;;;;;;5033807;28;20021;-52
2021/07/31 03:08:39;;;;;;;10.00;7.43;;;25.40;99.00;;;;;;5026125;28;20072;-53
2021/07/31 03:11:07;;;;;;;13.40;7.38;;;25.40;97.30;;;;;;5014754;28;20065;-52
2021/07/31 03:13:33;;;;;;;9.18;6.82;;;25.30;95.20;;;;;;5028745;28;20037;-53
2021/07/31 03:15:59;;;;;;;10.90;6.70;;;25.20;95.10;;;;;;5013949;28;20029;-52
2021/07/31 03:18:25;;;;;;;9.60;7.60;;;25.20;95.20;;;;;;5012421;28;20073;-52
2021/07/31 03:20:53;;;;;;;16.17;7.85;;;25.30;95.50;;;;;;5013732;28;20048;-52
2021/07/31 03:23:22;;;;;;;11.23;8.30;;;25.30;94.80;;;;;;5014094;28;20061;-52
2021/07/31 03:25:48;;;;;;;12.90;8.20;;;25.30;95.10;;;;;;5022329;28;20096;-52
2021/07/31 03:28:15;;;;;;;10.23;7.93;;;25.40;95.20;;;;;;5027640;28;20025;-52
2021/07/31 03:30:45;;;;;;;12.82;8.30;;;25.40;94.60;;;;;;5026107;28;20030;-52
2021/07/31 03:33:12;;;;;;;11.50;7.43;;;25.40;92.50;;;;;;5016443;28;20053;-52
2021/07/31 03:35:40;;;;;;;15.82;8.38;;;25.30;92.70;;;;;;5018712;28;20478;-52
2021/07/31 03:38:06;;;;;;;13.40;7.80;;;25.40;92.70;;;;;;5022720;28;20026;-53
2021/07/31 03:40:33;;;;;;;12.25;8.05;;;25.40;92.90;;;;;;5018979;28;20052;-53
2021/07/31 03:42:59;;;;;;;11.88;7.82;;;;;;;;;;5014063;28;20397;-52
2021/07/31 03:45:25;;;;;;;11.00;8.07;;;;;;;;;;5011175;28;20038;-53
2021/07/31 03:47:52;;;;;;;15.20;8.57;;;;;;;;;;4994809;28;20230;-53
2021/07/31 03:50:18;;;;;;;8.43;7.55;;;;;;;;;;5011321;28;20050;-53
2021/07/31 03:52:45;;;;;;;24.27;9.63;;;;;;;;;;4963114;28;20056;-52
2021/07/31 03:55:11;;;;;;;11.88;8.18;;;;;;;;;;5011575;28;20045;-52
2021/07/31 03:57:38;;;;;;;9.43;8.05;;;;;;;;;;4995334;28;20038;-52
2021/07/31 04:00:04;;;;;;;10.55;7.63;;;;;;;;;;5011348;28;20038;-52
2021/07/31 04:02:31;;;;;;;11.18;8.50;;;;;;;;;;5011658;28;20436;-52
2021/07/31 04:04:57;;;;;;;9.85;8.57;;;;;;;;;;5011127;28;20045;-52
2021/07/31 04:07:23;;;;;;;14.20;8.85;;;;;;;;;;4978750;28;20536;-53
2021/07/31 04:09:49;;;;;;;10.48;8.88;;;;;;;;;;5011607;28;20026;-53
2021/07/31 04:12:15;;;;;;;8.93;7.82;;;;;;;;;;5013041;28;20041;-52
2021/07/31 04:14:41;;;;;;;8.88;7.28;;;;;;;;;;5011672;28;20093;-53
2021/07/31 04:17:07;;;;;;;12.63;7.60;;;;;;;;;;5013242;28;20022;-52
2021/07/31 04:19:33;;;;;;;12.98;7.95;;;;;;;;;;5013201;28;20465;-52
2021/07/31 04:21:59;;;;;;;11.40;7.07;;;;;;;;;;5013373;28;20036;-53
2021/07/31 04:24:28;;;;;;;7.97;6.97;;;;;;;;;;5013453;28;20030;-53
2021/07/31 04:26:55;;;;;;;10.95;7.80;;;;;;;;;;5013037;28;20037;-52
2021/07/31 04:29:21;;;;;;;10.20;7.70;;;;;;;;;;5013389;28;20034;-52
2021/07/31 04:31:47;;;;;;;14.43;8.57;;;;;;;;;;5012593;28;20030;-52
2021/07/31 04:34:13;;;;;;;11.80;8.30;;;;;;;;;;5013099;28;20496;-52
2021/07/31 04:36:40;;;;;;;14.55;8.02;;;;;;;;;;5012872;28;20022;-52
2021/07/31 04:39:06;;;;;;;12.63;8.75;;;;;;;;;;5013067;28;20540;-52
2021/07/31 04:41:33;;;;;;;16.23;9.27;;;;;;;;;;5012426;28;20073;-54
2021/07/31 04:43:59;;;;;;;10.43;8.40;;;;;;;;;;5015308;28;20045;-52
2021/07/31 04:46:25;;;;;;;12.50;8.60;;;26.00;90.20;;;;;;5015980;28;20113;-53
2021/07/31 04:48:50;;;;;;;10.18;8.20;;;26.00;90.70;;;;;;4996869;28;20069;-53
2021/07/31 04:51:17;;;;;;;10.00;8.55;;;25.90;92.00;;;;;;4996938;28;20161;-53
2021/07/31 04:53:42;;;;;;;12.57;8.68;;;26.00;93.00;;;;;;4997190;28;20450;-52
2021/07/31 04:56:08;;;;;;;13.27;8.55;;;26.10;98.10;;;;;;4996871;28;20117;-53
2021/07/31 04:58:34;;;;;;;12.07;7.90;;;26.20;90.70;;;;;;4996868;28;20034;-52
2021/07/31 05:01:00;;;;;;;11.85;8.15;;;26.30;90.00;;;;;;5029275;28;20081;-53
2021/07/31 05:03:26;;;;;;;11.25;7.72;;;;;;;;;;5016535;28;20409;-52
2021/07/31 05:05:52;;;;;;;13.50;8.00;;;26.40;97.60;;;;;;5016592;28;20030;-52
2021/07/31 05:08:18;;;;;;;10.38;8.32;;;26.50;96.30;;;;;;5033273;28;20444;-53
2021/07/31 05:10:46;;;;;;;15.85;8.60;;;26.50;85.30;;;;;;5000743;28;20049;-53
2021/07/31 05:13:13;;;;;;;13.65;8.40;;;26.60;84.70;;;;;;5034055;28;20049;-53
2021/07/31 05:15:41;;;;;;;11.18;8.43;;;26.60;83.00;;;;;;5033459;28;20029;-52
2021/07/31 05:18:08;;;;;;;12.38;8.25;;;26.70;83.40;;;;;;5032064;28;20080;-53
2021/07/31 05:20:37;;;;;;;13.20;7.85;;;26.80;88.30;;;;;;5013227;28;20041;-53
2021/07/31 05:23:03;;;;;;;11.07;8.52;;;27.00;99.00;;;;;;5013310;28;20551;-53
2021/07/31 05:25:29;;;;;;;13.68;8.48;;;27.00;81.40;;;;;;5008014;28;20116;-53
2021/07/31 05:27:55;;;;;;;11.88;8.88;;;27.00;80.50;;;;;;5012608;28;20033;-53
2021/07/31 05:30:21;;;;;;;15.05;8.30;;;27.00;80.50;;;;;;5011298;28;20125;-53
2021/07/31 05:32:47;;;;;;;14.80;8.80;;;27.10;81.60;;;;;;5011158;28;20121;-53
2021/07/31 05:35:13;;;;;;;14.13;8.77;;;;;;;;;;5000033;28;20051;-53
2021/07/31 05:37:39;;;;;;;15.68;9.30;;;;;;;;;;4996860;28;20049;-53
2021/07/31 05:40:06;;;;;;;12.65;9.07;;;;;;;;;;4997147;28;20125;-53
2021/07/31 05:42:31;;;;;;;12.70;9.80;;;27.30;97.10;;;;;;4993328;28;20030;-56
2021/07/31 05:44:58;;;;;;;15.63;10.23;;;27.50;92.60;;;;;;4977377;28;20435;-52
2021/07/31 05:47:27;;;;;;;13.43;10.02;;;27.50;90.20;;;;;;4993916;28;20433;-53
2021/07/31 05:49:56;;;;;;;21.70;12.25;;;27.30;89.50;;;;;;4993849;28;20506;-54
2021/07/31 05:52:26;;;;;;;20.02;11.63;;;27.30;90.00;;;;;;4993738;28;20046;-54
2021/07/31 05:54:55;;;;;;;16.70;10.65;;;27.40;89.70;;;;;;4993765;28;20104;-51
2021/07/31 05:57:21;;;;;;;17.63;10.40;;;27.40;89.40;;;;;;4997228;28;20100;-53
2021/07/31 05:59:48;;;;;;;17.55;10.68;;;27.40;89.90;;;;;;5030056;28;20465;-52
2021/07/31 06:02:14;;;;;;;17.80;10.38;;;27.50;88.50;;;;;;5015263;28;20030;-51
2021/07/31 06:04:40;;;;;;;20.30;10.27;;;27.60;85.00;;;;;;5014446;28;20105;-54
2021/07/31 06:07:08;;;;;;;14.35;11.00;;;27.60;86.40;;;;;;5015049;28;20021;-55
2021/07/31 06:09:34;;;;;;;13.90;11.18;;;27.70;89.60;;;;;;5014659;28;20392;-55
2021/07/31 06:12:01;;;;;;;15.98;10.45;;;27.70;81.10;;;;;;5014539;28;20026;-53
2021/07/31 06:14:27;;;;;;;15.18;10.55;;;27.70;79.60;;;;;;5014659;28;20030;-51
2021/07/31 06:16:53;;;;;;;13.18;10.35;;;27.70;79.90;;;;;;5012752;28;20038;-55
2021/07/31 06:19:19;;;;;;;13.65;9.82;;;27.80;79.20;;;;;;5014313;28;20029;-54
2021/07/31 06:21:45;;;;;;;13.45;10.43;;;27.80;79.70;;;;;;5014181;28;20104;-53
2021/07/31 06:24:11;;;;;;;22.27;9.93;;;27.90;79.10;;;;;;5014544;28;20465;-53
2021/07/31 06:26:37;;;;;;;13.77;9.68;;;28.00;79.60;;;;;;4980414;28;20038;-53
2021/07/31 06:29:02;;;;;;;14.95;9.38;;;28.10;79.40;;;;;;4980539;28;20104;-51
2021/07/31 06:31:28;;;;;;;15.73;9.40;;;28.20;78.70;;;;;;5015023;28;20101;-51
2021/07/31 06:33:57;;;;;;;18.10;10.00;;;28.10;77.80;;;;;;5013983;28;20157;-53
2021/07/31 06:36:25;;;;;;;12.32;10.38;;;28.20;78.50;;;;;;4996410;28;20084;-50
2021/07/31 06:38:50;;;;;;;13.88;9.38;;;28.30;78.30;;;;;;5014580;28;20026;-53
2021/07/31 06:41:16;;;;;;;19.23;9.70;;;28.30;78.30;;;;;;4980024;28;20049;-52
2021/07/31 06:43:42;;;;;;;15.57;9.65;;;28.50;78.90;;;;;;5015148;28;20110;-53
2021/07/31 06:46:15;;;;;;;14.07;9.60;;;28.70;85.90;;;;;;5014877;28;20030;-54
2021/07/31 06:48:42;;;;;;;12.13;9.48;;;28.70;88.90;;;;;;5029176;28;20037;-54
2021/07/31 06:51:09;;;;;;;12.10;9.35;;;28.80;90.80;;;;;;5029077;28;20140;-52
2021/07/31 06:53:35;;;;;;;13.95;10.38;;;29.00;80.50;;;;;;5014008;28;20036;-55
2021/07/31 06:56:02;;;;;;;13.98;9.45;;;29.00;81.00;;;;;;5013820;28;20042;-53
2021/07/31 06:58:28;;;;;;;14.38;10.38;;;29.10;83.20;;;;;;5010772;28;21008;-51
2021/07/31 07:00:54;;;;;;;14.57;10.07;;;29.20;81.50;;;;;;5011789;28;20046;-56
2021/07/31 07:03:20;;;;;;;15.18;9.57;;;29.30;88.90;;;;;;5013919;28;20022;-54
2021/07/31 07:05:46;;;;;;;14.05;9.02;;;29.30;83.60;;;;;;5013621;28;20366;-55
2021/07/31 07:08:12;;;;;;;12.02;9.00;;;29.40;84.10;;;;;;5014486;28;20030;-53
2021/07/31 07:10:38;;;;;;;11.88;8.52;;;29.50;76.20;;;;;;4995866;28;20033;-52
2021/07/31 07:13:03;;;;;;;11.02;9.68;;;29.40;75.90;;;;;;4979291;28;20038;-54
2021/07/31 07:15:29;;;;;;;11.77;9.23;;;29.60;76.20;;;;;;5014024;28;20060;-53
2021/07/31 07:17:56;;;;;;;10.98;8.32;;;29.70;76.20;;;;;;5013157;28;20054;-54
2021/07/31 07:20:23;;;;;;;14.63;9.32;;;29.80;75.90;;;;;;5013218;28;20042;-54
2021/07/31 07:22:49;;;;;;;11.40;8.73;;;29.90;75.10;;;;;;5013793;28;20053;-55
2021/07/31 07:25:15;;;;;;;14.90;10.63;;;30.00;75.10;;;;;;5012910;28;20057;-51
2021/07/31 07:27:41;;;;;;;17.65;9.48;;;30.10;74.90;;;;;;5010982;28;20037;-51
2021/07/31 07:30:07;;;;;;;17.23;10.48;;;30.20;74.30;;;;;;5026884;28;20084;-52
2021/07/31 07:32:37;;;;;;;12.00;9.25;;;30.30;74.80;;;;;;5012838;28;20117;-51
2021/07/31 07:35:04;;;;;;;14.88;10.27;;;30.30;74.80;;;;;;5012856;28;20029;-50
2021/07/31 07:37:30;;;;;;;15.95;9.10;;;30.50;73.70;;;;;;5009701;28;20038;-57
2021/07/31 07:39:55;;;;;;;12.00;8.80;;;30.60;73.40;;;;;;4975967;28;20042;-52
2021/07/31 07:42:21;;;;;;;13.95;9.27;;;30.70;73.30;;;;;;4994043;28;20045;-51
2021/07/31 07:44:47;;;;;;;14.35;9.48;;;30.70;73.30;;;;;;4994258;28;20105;-53
2021/07/31 07:47:13;;;;;;;13.15;9.65;;;30.80;73.10;;;;;;4942567;28;20516;-50
2021/07/31 07:49:38;;;;;;;15.70;9.82;;;30.90;72.20;;;;;;4993678;28;20124;-54
2021/07/31 07:52:05;;;;;;;12.40;8.35;;;31.00;73.60;;;;;;4993982;28;20034;-50
2021/07/31 07:54:31;;;;;;;12.65;8.50;;;31.00;72.80;;;;;;4993917;28;20033;-55
2021/07/31 07:57:00;;;;;;;18.92;8.00;;;31.40;87.80;;;;;;4991982;28;20117;-53
2021/07/31 07:59:26;;;;;;;11.38;8.95;;;31.10;71.90;;;;;;5011682;28;20072;-56
2021/07/31 08:01:52;;;;;;;10.45;7.90;;;31.20;71.80;;;;;;5011202;28;20041;-50
2021/07/31 08:04:17;;;;;;;12.68;8.23;;;31.40;71.40;;;;;;5013292;28;20048;-55
2021/07/31 08:06:43;;;;;;;12.80;8.38;;;31.40;70.50;;;;;;5012504;28;20026;-49
2021/07/31 08:09:09;;;;;;;9.65;7.47;;;31.60;71.60;;;;;;5012859;28;20040;-52
2021/07/31 08:11:35;;;;;;;12.43;7.80;;;31.70;69.90;;;;;;5012789;28;20022;-54
2021/07/31 08:14:01;;;;;;;14.88;8.10;;;31.70;71.40;;;;;;5013491;28;20453;-50
2021/07/31 08:16:27;;;;;;;9.77;8.25;;;31.80;90.60;;;;;;5013401;28;20025;-54
2021/07/31 08:18:53;;;;;;;13.95;8.07;;;32.00;90.40;;;;;;5017624;28;20030;-54
2021/07/31 08:21:19;;;;;;;12.77;7.90;;;32.20;91.30;;;;;;5016033;28;20091;-53
2021/07/31 08:23:46;;;;;;;8.40;6.68;;;;;;;;;;5030802;28;20452;-52
2021/07/31 08:26:13;;;;;;;10.38;7.40;;;32.30;94.40;;;;;;5023046;28;20483;-51
2021/07/31 08:28:45;;;;;;;9.88;7.13;;;32.20;68.50;;;;;;5034134;28;20040;-53
2021/07/31 08:31:12;;;;;;;8.38;7.28;;;32.10;68.50;;;;;;5034651;28;20038;-49
2021/07/31 08:33:38;;;;;;;9.55;7.75;;;32.20;69.00;;;;;;5001603;28;20040;-50
2021/07/31 08:36:05;;;;;;;21.05;7.70;;;32.40;69.50;;;;;;5034660;28;20063;-50
2021/07/31 08:38:31;;;;;;;12.48;7.05;;;32.60;69.20;;;;;;5034499;28;20229;-49
2021/07/31 08:40:58;;;;;;;9.82;7.78;;;32.70;69.60;;;;;;5034358;28;20033;-51
2021/07/31 08:43:24;;;;;;;13.90;7.45;;;32.80;68.40;;;;;;5034472;28;20088;-51
2021/07/31 08:45:51;;;;;;;9.73;6.85;;;32.80;68.00;;;;;;5001658;28;20044;-50
2021/07/31 08:48:18;;;;;;;10.65;7.55;;;;;;;;;;5034307;28;20029;-57
2021/07/31 08:50:46;;;;;;;8.40;6.57;;;32.70;66.60;;;;;;5034278;28;20045;-51
2021/07/31 08:53:12;;;;;;;10.23;6.95;;;32.70;66.80;;;;;;5034278;28;20033;-50
2021/07/31 08:55:40;;;;;;;8.63;6.75;;;32.80;66.90;;;;;;5000870;28;20033;-54
2021/07/31 08:58:06;;;;;;;9.98;6.47;;;32.90;67.60;;;;;;4985162;28;20469;-50
2021/07/31 09:00:32;;;;;;;8.80;6.30;;;32.90;66.80;;;;;;5018576;28;20073;-52
2021/07/31 09:02:58;;;;;;;9.55;6.47;;;33.00;71.50;;;;;;5029992;28;20040;-54
2021/07/31 09:05:34;;;;;;;11.50;6.05;;;33.10;71.90;;;;;;5014205;28;20034;-58
2021/07/31 09:08:02;;;;;;;14.38;6.80;;;33.20;67.20;;;;;;5014485;28;20062;-55
2021/07/31 09:10:29;;;;;;;13.48;6.43;;;;;;;;;;4975429;28;20520;-61
2021/07/31 09:12:55;;;;;;;14.07;6.63;;;;;;;;;;4974997;28;20039;-55
2021/07/31 09:15:32;;;;;;;8.07;5.43;;;;;;;;;;4974931;28;20158;-58
2021/07/31 09:18:17;;;;;;;6.40;5.60;;;;;;;;;;4965973;28;20105;-60
2021/07/31 09:20:43;;;;;;;10.07;5.70;;;;;;;;;;4939815;29;20039;-53
2021/07/31 09:23:08;;;;;;;9.07;6.22;;;34.00;93.20;;;;;;4923875;29;20058;-60
2021/07/31 09:25:36;;;;;;;6.70;5.10;;;;;;;;;;4955432;29;20035;-60
2021/07/31 09:28:18;;;;;;;6.65;5.15;;;;;;;;;;4924192;28;20047;-54
2021/07/31 09:30:52;;;;;;;8.30;5.68;;;34.40;61.60;;;;;;4939265;29;20494;-55
2021/07/31 09:33:19;;;;;;;10.50;5.25;;;34.30;62.00;;;;;;4968254;28;20042;-51
2021/07/31 09:35:46;;;;;;;6.40;5.72;;;34.40;61.70;;;;;;4978953;28;20096;-52
2021/07/31 09:38:12;;;;;;;10.05;6.25;;;34.60;61.40;;;;;;4993741;28;20036;-59
2021/07/31 09:40:39;;;;;;;7.55;5.22;;;34.90;61.30;;;;;;4996227;28;20065;-59
2021/07/31 09:43:18;;;;;;;6.85;5.55;;;34.70;60.40;;;;;;5015480;28;20033;-56
2021/07/31 09:45:44;;;;;;;9.95;6.18;;;35.00;60.60;;;;;;5015665;28;20061;-58
2021/07/31 09:48:11;;;;;;;6.85;5.22;;;34.90;60.10;;;;;;5016251;28;20032;-48
2021/07/31 09:50:39;;;;;;;12.13;6.03;;;35.00;59.60;;;;;;5015298;28;20505;-51
2021/07/31 09:53:21;;;;;;;8.18;5.35;;;;;;;;;;5030167;28;20042;-53
2021/07/31 09:55:49;;;;;;;;;;;35.30;59.50;;;;;;5016033;28;20101;-55
2021/07/31 09:58:18;;;;;;;8.48;5.68;;;35.30;58.80;;;;;;5029907;28;19905;-49
2021/07/31 10:00:45;;;;;;;11.35;5.43;;;35.30;60.30;;;;;;5015440;28;20474;-51
2021/07/31 10:03:12;;;;;;;10.63;6.03;;;35.50;60.20;;;;;;5015063;28;20105;-49
2021/07/31 10:05:42;;;;;;;9.23;5.25;;;;;;;;;;5015402;28;20080;-55
2021/07/31 10:08:13;;;;;;;8.03;5.43;;;36.00;59.80;;;;;;5015323;28;20021;-54
2021/07/31 10:10:40;;;;;;;8.65;5.60;;;;;;;;;;5014880;28;20034;-50
2021/07/31 10:13:06;;;;;;;6.63;5.25;;;;;;;;;;5014655;28;20025;-53
2021/07/31 10:15:32;;;;;;;6.25;5.20;;;36.90;71.20;;;;;;5015151;28;20034;-51
2021/07/31 10:17:59;;;;;;;5.80;4.88;;;36.50;56.20;;;;;;5014978;28;20484;-58
2021/07/31 10:20:29;;;;;;;10.32;5.95;;;36.60;56.30;;;;;;5014293;28;20501;-53
2021/07/31 10:22:56;;;;;;;6.60;5.37;;;36.30;57.90;;;;;;5015130;28;20030;-55
2021/07/31 10:25:23;;;;;;;5.43;4.75;;;36.10;56.90;;;;;;5015176;28;20345;-51
2021/07/31 10:27:51;;;;;;;6.95;5.45;;;36.00;57.40;;;;;;5029787;28;20034;-48
2021/07/31 10:30:27;;;;;;;7.03;5.25;;;36.10;57.80;;;;;;5029883;28;20034;-54
2021/07/31 10:32:53;;;;;;;9.30;4.55;;;36.50;58.00;;;;;;5014767;28;20030;-50
2021/07/31 10:35:23;;;;;;;7.18;5.10;;;;;;;;;;5014972;28;20058;-57
2021/07/31 10:37:50;;;;;;;8.43;4.90;;;36.80;56.00;;;;;;5015066;28;20030;-56
2021/07/31 10:40:30;;;;;;;9.13;5.60;;;36.60;56.40;;;;;;5011218;28;20053;-62
2021/07/31 10:42:56;;;;;;;7.75;5.15;;;36.50;56.50;;;;;;5011399;28;20046;-49
2021/07/31 10:45:24;;;;;;;6.03;5.07;;;36.60;56.70;;;;;;5005066;28;20030;-50
2021/07/31 10:47:51;;;;;;;6.25;4.90;;;36.40;56.70;;;;;;4964354;28;20128;-55
2021/07/31 10:50:23;;;;;;;7.07;4.88;;;36.40;56.50;;;;;;5000850;28;20097;-48
2021/07/31 10:53:00;;;;;;;8.07;5.20;;;36.70;56.90;;;;;;5006218;28;20021;-48
2021/07/31 10:55:46;;;;;;;6.57;5.22;;;36.90;55.20;;;;;;4980719;28;20046;-55
2021/07/31 10:58:23;;;;;;;7.60;4.75;;;37.10;56.90;;;;;;4970536;28;20296;-49
2021/07/31 11:01:12;;;;;;;16.75;7.15;;;37.20;55.60;;;;;;4967613;28;20046;-52
2021/07/31 11:03:39;;;;;;;13.68;7.25;;;36.80;55.90;;;;;;4969575;28;20042;-56
2021/07/31 11:06:05;;;;;;;8.73;5.95;;;36.90;56.50;;;;;;4970548;28;20038;-49
2021/07/31 11:08:34;;;;;;;7.05;4.70;;;36.80;56.10;;;;;;4968794;28;20035;-48
2021/07/31 11:11:20;;;;;;;8.48;5.00;;;37.10;54.70;;;;;;4964177;28;20066;-57
2021/07/31 11:13:46;;;;;;;6.70;4.93;;;37.50;57.00;;;;;;4966643;28;20035;-59
2021/07/31 11:16:15;;;;;;;6.63;4.57;;;37.60;56.20;;;;;;4966060;28;20035;-54
2021/07/31 11:18:44;;;;;;;9.80;4.95;;;37.80;54.80;;;;;;4970873;28;20490;-51
2021/07/31 11:21:13;;;;;;;7.20;4.82;;;;;;;;;;4971243;28;20074;-55
2021/07/31 11:23:45;;;;;;;7.65;4.47;;;;;;;;;;4971558;28;20482;-48
2021/07/31 11:26:12;;;;;;;11.15;5.28;;;;;;;;;;4971704;28;20035;-55
2021/07/31 11:28:38;;;;;;;9.38;5.10;;;37.10;55.80;;;;;;4972311;28;20425;-51
2021/07/31 11:31:19;;;;;;;7.25;5.53;;;37.30;56.10;;;;;;4923175;28;20042;-50
2021/07/31 11:34:06;;;;;;;8.73;5.00;;;37.50;55.60;;;;;;4967275;28;20485;-53
2021/07/31 11:36:32;;;;;;;9.73;5.13;;;37.80;56.80;;;;;;5009455;28;20437;-49
2021/07/31 11:39:01;;;;;;;5.93;5.07;;;38.00;54.80;;;;;;5003733;28;20358;-54
2021/07/31 11:41:27;;;;;;;6.13;5.18;;;38.00;55.60;;;;;;5001902;28;20046;-54
2021/07/31 11:43:55;;;;;;;6.38;5.05;;;37.80;55.90;;;;;;5003288;28;20528;-47
2021/07/31 11:46:41;;;;;;;7.07;4.68;;;37.60;56.00;;;;;;5006816;28;20030;-46
2021/07/31 11:49:10;;;;;;;17.25;5.88;;;37.70;56.00;;;;;;5002787;28;20466;-48
2021/07/31 11:51:44;;;;;;;10.90;5.68;;;37.80;55.90;;;;;;5017437;28;20050;-48
2021/07/31 11:54:10;;;;;;;13.30;5.72;;;38.00;56.50;;;;;;5014813;28;20060;-48
2021/07/31 11:56:38;;;;;;;6.82;5.65;;;38.20;56.40;;;;;;5019592;28;20042;-52
2021/07/31 11:59:05;;;;;;;7.03;5.15;;;38.20;56.10;;;;;;5018924;28;20127;-52
2021/07/31 12:01:35;;;;;;;10.35;5.60;;;37.90;55.70;;;;;;5006011;28;20038;-50
2021/07/31 12:04:01;;;;;;;29.92;8.07;;;37.90;55.70;;;;;;5002098;28;20093;-50
2021/07/31 12:06:48;;;;;;;30.52;8.00;;;38.10;56.20;;;;;;5005350;28;20359;-50
2021/07/31 12:09:29;;;;;;;33.00;7.72;;;;;;;;;;5005397;28;20050;-52
2021/07/31 12:11:57;;;;;;;8.95;5.78;;;38.60;53.40;;;;;;5005096;28;20485;-52
2021/07/31 12:14:37;;;;;;;9.82;5.60;;;38.60;54.80;;;;;;5005695;28;20038;-50
2021/07/31 12:17:22;;;;;;;6.05;5.13;;;39.00;55.10;;;;;;4988265;28;20417;-51
2021/07/31 12:19:50;;;;;;;10.27;4.97;;;;;;;;;;5009290;28;20030;-52
2021/07/31 12:22:18;;;;;;;8.55;5.47;;;38.90;62.40;;;;;;5002704;28;20037;-51
2021/07/31 12:25:03;;;;;;;35.70;9.23;;;38.50;69.60;;;;;;5012124;28;20057;-48
2021/07/31 12:28:01;;;;;;;9.95;5.22;;;38.60;70.80;;;;;;5008457;28;20080;-47
2021/07/31 12:30:28;;;;;;;15.82;6.03;;;38.50;71.10;;;;;;4999390;28;20470;-50
2021/07/31 12:32:55;;;;;;;14.50;5.88;;;39.10;71.40;;;;;;5010221;28;20048;-53
2021/07/31 12:35:45;;;;;;;6.35;5.50;;;;;;;;;;4999392;28;20164;-49
2021/07/31 12:38:25;;;;;;;8.13;5.53;;;39.10;56.30;;;;;;4952399;28;20042;-50
2021/07/31 12:40:59;;;;;;;7.18;6.15;;;38.80;55.10;;;;;;4988427;28;20082;-52
2021/07/31 12:43:27;;;;;;;9.15;5.47;;;38.10;56.00;;;;;;4988996;28;20533;-50
2021/07/31 12:45:55;;;;;;;7.75;5.75;;;38.40;57.10;;;;;;4988885;28;20031;-53
2021/07/31 12:48:21;;;;;;;12.57;6.30;;;38.30;57.70;;;;;;4990082;28;20038;-48
2021/07/31 12:50:46;;;;;;;20.75;7.15;;;38.50;58.30;;;;;;4990751;28;20121;-48
2021/07/31 12:53:14;;;;;;;10.52;6.75;;;38.60;58.20;;;;;;4957250;28;20129;-53
2021/07/31 12:55:41;;;;;;;13.15;6.30;;;38.80;57.60;;;;;;4990069;28;20034;-53
2021/07/31 12:58:07;;;;;;;8.00;5.40;;;39.00;58.00;;;;;;4982231;28;20466;-48
2021/07/31 13:00:33;;;;;;;8.70;5.65;;;39.00;57.10;;;;;;4989248;28;20472;-50
2021/07/31 13:02:59;;;;;;;10.20;6.35;;;39.10;57.00;;;;;;4985064;28;20583;-52
2021/07/31 13:05:26;;;;;;;7.18;5.68;;;38.90;57.20;;;;;;4985692;28;20034;-51
2021/07/31 13:07:58;;;;;;;12.52;6.65;;;39.00;57.50;;;;;;4990303;28;20043;-53
2021/07/31 13:10:24;;;;;;;7.82;6.30;;;39.10;57.00;;;;;;4987121;28;20473;-50
2021/07/31 13:12:50;;;;;;;6.38;5.13;;;;;;;;;;4991041;28;20084;-50
2021/07/31 13:15:18;;;;;;;9.55;5.63;;;;;;;;;;5003599;28;20038;-54